Time;durP1;ratioP1;P1;durP2;ratioP2;P2;SDS_P1;SDS_P2;PMS_P1;PMS_P2;Temp;Humidity;BMP_temperature;BMP_pressure;BME280_temperature;BME280_humidity;BME280_pressure;Samples;Min_cycle;Max_cycle;Signal;HPM_P1;HPM_P2
2023/09/11 00:01:16;;;;;;;7.55;6.72;;;18.60;99.90;;;;;;5019255;28;20041;-73
2023/09/11 00:03:42;;;;;;;8.05;6.68;;;18.50;99.90;;;;;;5038303;28;20035;-73
2023/09/11 00:06:08;;;;;;;7.93;7.10;;;18.50;99.90;;;;;;5055834;28;20029;-73
2023/09/11 00:08:34;;;;;;;8.30;7.13;;;18.50;99.90;;;;;;5055454;28;20362;-73
2023/09/11 00:11:00;;;;;;;8.50;7.10;;;18.50;99.90;;;;;;5037827;28;20108;-73
2023/09/11 00:13:27;;;;;;;8.27;7.35;;;18.40;99.90;;;;;;5055753;28;20107;-73
2023/09/11 00:15:53;;;;;;;8.73;7.32;;;18.40;99.90;;;;;;5056512;28;20017;-73
2023/09/11 00:18:18;;;;;;;8.80;7.30;;;18.30;99.90;;;;;;5055671;28;20595;-73
2023/09/11 00:20:44;;;;;;;10.70;7.70;;;18.20;99.90;;;;;;5055517;28;20032;-73
2023/09/11 00:23:10;;;;;;;9.00;6.97;;;18.10;99.90;;;;;;5055371;28;20029;-73
2023/09/11 00:25:36;;;;;;;8.68;7.38;;;18.10;99.90;;;;;;5055509;28;20037;-73
2023/09/11 00:28:02;;;;;;;10.05;7.28;;;18.00;99.90;;;;;;5037726;28;20029;-73
2023/09/11 00:30:28;;;;;;;8.20;7.00;;;18.00;99.90;;;;;;5037834;28;20033;-73
2023/09/11 00:32:54;;;;;;;9.73;7.43;;;18.00;99.90;;;;;;5055498;28;20029;-73
2023/09/11 00:35:19;;;;;;;8.95;6.55;;;17.90;99.90;;;;;;5055557;28;20028;-73
2023/09/11 00:37:45;;;;;;;7.97;6.45;;;17.90;99.90;;;;;;5055561;28;20500;-74
2023/09/11 00:40:11;;;;;;;8.18;6.78;;;17.90;99.90;;;;;;5055227;28;20074;-73
2023/09/11 00:42:37;;;;;;;7.97;6.45;;;17.90;99.90;;;;;;5055336;28;20021;-73
2023/09/11 00:45:03;;;;;;;9.38;7.50;;;17.90;99.90;;;;;;5037908;28;20040;-73
2023/09/11 00:47:29;;;;;;;7.38;6.53;;;17.90;99.90;;;;;;5055784;28;20031;-73
2023/09/11 00:49:57;;;;;;;8.15;6.72;;;17.90;99.90;;;;;;5055067;28;20028;-74
2023/09/11 00:52:24;;;;;;;8.23;7.07;;;17.90;99.90;;;;;;5054812;28;20503;-73
2023/09/11 00:54:52;;;;;;;8.77;6.65;;;17.90;99.90;;;;;;5054823;28;20079;-73
2023/09/11 00:57:18;;;;;;;7.28;6.35;;;17.90;99.90;;;;;;5055330;28;20024;-73
2023/09/11 00:59:51;;;;;;;8.18;6.50;;;17.90;99.90;;;;;;5054999;28;20637;-73
2023/09/11 01:02:17;;;;;;;8.88;7.40;;;17.80;99.90;;;;;;5037578;28;20036;-73
2023/09/11 01:04:44;;;;;;;11.27;7.53;;;17.80;99.90;;;;;;5037755;28;20108;-74
2023/09/11 01:07:12;;;;;;;8.93;7.13;;;17.80;99.90;;;;;;5053620;28;20056;-73
2023/09/11 01:09:40;;;;;;;9.80;7.45;;;17.70;99.90;;;;;;5048214;28;20485;-74
2023/09/11 01:12:06;;;;;;;8.73;6.85;;;17.70;99.90;;;;;;5036499;28;20077;-73
2023/09/11 01:14:32;;;;;;;9.20;7.63;;;17.70;99.90;;;;;;5046908;28;20029;-73
2023/09/11 01:17:19;;;;;;;7.80;7.00;;;17.70;99.90;;;;;;5054290;28;20033;-73
2023/09/11 01:19:54;;;;;;;8.90;7.63;;;17.60;99.90;;;;;;5053955;28;20485;-73
2023/09/11 01:22:59;;;;;;;8.48;7.30;;;17.60;99.90;;;;;;5054424;28;20032;-73
2023/09/11 01:25:53;;;;;;;8.88;7.38;;;17.60;99.90;;;;;;5054352;28;20108;-73
2023/09/11 01:28:55;;;;;;;9.10;7.13;;;17.50;99.90;;;;;;5054184;28;20103;-74
2023/09/11 01:31:24;;;;;;;9.13;7.75;;;17.50;99.90;;;;;;5054193;28;20017;-73
2023/09/11 01:33:53;;;;;;;8.75;7.20;;;17.50;99.90;;;;;;5053822;28;20025;-73
2023/09/11 01:36:19;;;;;;;9.30;7.60;;;17.40;99.90;;;;;;5054134;28;20021;-73
2023/09/11 01:38:45;;;;;;;8.73;7.57;;;17.40;99.90;;;;;;5054588;28;20048;-74
2023/09/11 01:41:14;;;;;;;9.35;7.70;;;17.40;99.90;;;;;;5052773;28;20067;-74
2023/09/11 01:43:43;;;;;;;9.13;7.75;;;17.40;99.90;;;;;;5054010;28;20041;-73
2023/09/11 01:46:10;;;;;;;9.82;6.85;;;17.40;99.90;;;;;;5054151;28;20384;-73
2023/09/11 01:48:37;;;;;;;9.65;7.68;;;17.30;99.90;;;;;;5036366;28;20024;-73
2023/09/11 01:51:05;;;;;;;8.75;6.55;;;17.30;99.90;;;;;;5035920;28;20029;-73
2023/09/11 01:53:31;;;;;;;8.20;6.43;;;17.30;99.90;;;;;;5035785;28;20493;-73
2023/09/11 01:55:58;;;;;;;9.35;7.03;;;17.20;99.90;;;;;;5053599;28;20048;-73
2023/09/11 01:58:24;;;;;;;7.57;6.53;;;17.20;99.90;;;;;;5053781;28;20021;-73
2023/09/11 02:00:50;;;;;;;8.55;6.65;;;17.10;99.90;;;;;;5053756;28;20040;-73
2023/09/11 02:03:19;;;;;;;8.93;7.13;;;17.10;99.90;;;;;;5035676;28;20032;-73
2023/09/11 02:05:45;;;;;;;7.95;6.53;;;17.10;99.90;;;;;;5053634;28;20032;-73
2023/09/11 02:08:10;;;;;;;10.23;8.68;;;17.10;99.90;;;;;;5054104;28;20531;-73
2023/09/11 02:10:36;;;;;;;10.63;8.70;;;17.10;99.90;;;;;;5053557;28;20029;-73
2023/09/11 02:13:02;;;;;;;12.90;9.30;;;17.00;99.90;;;;;;5053735;28;20485;-73
2023/09/11 02:15:27;;;;;;;11.85;9.52;;;17.00;99.90;;;;;;5053598;28;20395;-73
2023/09/11 02:17:53;;;;;;;11.55;9.73;;;16.90;99.90;;;;;;5019206;28;20025;-73
2023/09/11 02:20:19;;;;;;;10.23;8.48;;;16.90;99.90;;;;;;5035596;28;20110;-73
2023/09/11 02:22:44;;;;;;;10.77;9.27;;;16.90;99.90;;;;;;5053462;28;20036;-73
2023/09/11 02:25:10;;;;;;;9.70;8.00;;;16.90;99.90;;;;;;5053687;28;20476;-73
2023/09/11 02:27:35;;;;;;;10.07;8.20;;;16.90;99.90;;;;;;5053449;28;20480;-73
2023/09/11 02:30:01;;;;;;;9.65;8.13;;;16.80;99.90;;;;;;5035019;28;20033;-73
2023/09/11 02:32:27;;;;;;;10.50;7.78;;;16.80;99.90;;;;;;5053768;28;20021;-73
2023/09/11 02:34:53;;;;;;;8.70;7.03;;;16.80;99.90;;;;;;5035357;28;20117;-75
2023/09/11 02:37:18;;;;;;;8.05;6.38;;;16.80;99.90;;;;;;5035547;28;20432;-73
2023/09/11 02:39:44;;;;;;;8.93;7.18;;;16.80;99.90;;;;;;5053538;28;20052;-73
2023/09/11 02:42:10;;;;;;;10.30;7.18;;;16.80;99.90;;;;;;5018765;28;20475;-73
2023/09/11 02:44:36;;;;;;;8.88;7.28;;;16.70;99.90;;;;;;5053117;28;20025;-73
2023/09/11 02:47:01;;;;;;;8.98;7.05;;;16.70;99.90;;;;;;5053411;28;20029;-73
2023/09/11 02:49:27;;;;;;;9.65;7.85;;;16.60;99.90;;;;;;5053165;28;20039;-73
2023/09/11 02:51:52;;;;;;;9.95;6.95;;;16.50;99.90;;;;;;5052972;28;20057;-73
2023/09/11 02:54:19;;;;;;;8.20;7.20;;;16.50;99.90;;;;;;5035266;28;20037;-73
2023/09/11 02:56:45;;;;;;;8.13;7.05;;;16.50;99.90;;;;;;5053369;28;20025;-73
2023/09/11 02:59:10;;;;;;;8.65;6.93;;;16.50;99.90;;;;;;5053252;28;20079;-73
2023/09/11 03:01:36;;;;;;;8.68;7.45;;;16.50;99.90;;;;;;5053165;28;20392;-73
2023/09/11 03:04:02;;;;;;;8.40;7.57;;;16.60;99.90;;;;;;5053030;28;20485;-73
2023/09/11 03:06:28;;;;;;;10.10;8.05;;;16.60;99.90;;;;;;5035987;28;20473;-73
2023/09/11 03:08:53;;;;;;;8.98;7.53;;;16.60;99.90;;;;;;5053251;28;20029;-73
2023/09/11 03:11:19;;;;;;;11.50;7.53;;;16.60;99.90;;;;;;5052983;28;20477;-74
2023/09/11 03:13:47;;;;;;;8.60;7.70;;;16.50;99.90;;;;;;5035057;28;20075;-73
2023/09/11 03:16:14;;;;;;;8.13;6.85;;;16.50;99.90;;;;;;5035299;28;20119;-73
2023/09/11 03:18:41;;;;;;;9.23;7.70;;;16.40;99.90;;;;;;5052755;28;20029;-73
2023/09/11 03:21:07;;;;;;;8.95;7.07;;;16.50;99.90;;;;;;5052807;28;20025;-74
2023/09/11 03:23:33;;;;;;;9.20;7.32;;;16.50;99.90;;;;;;5035056;28;20044;-73
2023/09/11 03:25:59;;;;;;;10.30;7.60;;;16.40;99.90;;;;;;5052699;28;20370;-73
2023/09/11 03:28:28;;;;;;;8.02;6.85;;;16.40;99.90;;;;;;5052742;28;20116;-73
2023/09/11 03:30:54;;;;;;;10.02;7.68;;;16.40;99.90;;;;;;5053232;28;20025;-73
2023/09/11 03:33:20;;;;;;;8.70;7.78;;;16.40;99.90;;;;;;5034751;28;20033;-73
2023/09/11 03:35:49;;;;;;;10.23;8.15;;;16.30;99.90;;;;;;5053134;28;20021;-73
2023/09/11 03:38:15;;;;;;;10.02;7.70;;;16.30;99.90;;;;;;5052665;28;20033;-73
2023/09/11 03:40:43;;;;;;;10.05;7.63;;;16.30;99.90;;;;;;5053019;28;20029;-73
2023/09/11 03:43:08;;;;;;;10.65;7.82;;;16.30;99.90;;;;;;5038069;28;20032;-73
2023/09/11 03:45:34;;;;;;;9.32;7.22;;;16.30;99.90;;;;;;5055264;28;20124;-73
2023/09/11 03:48:00;;;;;;;8.05;7.03;;;16.30;99.90;;;;;;5055987;28;20536;-73
2023/09/11 03:50:26;;;;;;;11.10;6.97;;;16.20;99.90;;;;;;5038200;28;20440;-73
2023/09/11 03:52:51;;;;;;;8.98;7.47;;;16.30;99.90;;;;;;5037071;28;20115;-73
2023/09/11 03:55:17;;;;;;;8.15;6.82;;;16.20;99.90;;;;;;5021043;28;20382;-73
2023/09/11 03:57:43;;;;;;;8.25;7.45;;;16.30;99.90;;;;;;5056007;28;20025;-73
2023/09/11 04:00:10;;;;;;;11.68;8.25;;;16.20;99.90;;;;;;5037937;28;20025;-73
2023/09/11 04:02:37;;;;;;;12.18;8.43;;;16.20;99.90;;;;;;5055627;28;20025;-73
2023/09/11 04:05:03;;;;;;;9.32;7.90;;;16.10;99.90;;;;;;5054575;28;20029;-73
2023/09/11 04:07:29;;;;;;;8.18;6.75;;;15.90;99.90;;;;;;5037955;28;20104;-73
2023/09/11 04:09:54;;;;;;;9.55;7.88;;;15.90;99.90;;;;;;5055411;28;20025;-73
2023/09/11 04:12:20;;;;;;;9.10;7.97;;;15.80;99.90;;;;;;5055328;28;20025;-73
2023/09/11 04:14:46;;;;;;;8.90;7.40;;;15.90;99.90;;;;;;5055465;28;20028;-73
2023/09/11 04:17:12;;;;;;;9.02;7.22;;;15.90;99.90;;;;;;5055426;28;20029;-73
2023/09/11 04:19:38;;;;;;;9.00;7.30;;;15.90;99.90;;;;;;5037105;28;20116;-73
2023/09/11 04:22:05;;;;;;;9.32;7.13;;;15.90;99.90;;;;;;5055256;28;20029;-73
2023/09/11 04:24:31;;;;;;;8.13;6.80;;;15.90;99.90;;;;;;5055432;28;20044;-73
2023/09/11 04:26:57;;;;;;;8.45;7.20;;;15.90;99.90;;;;;;5056013;28;20029;-73
2023/09/11 04:29:23;;;;;;;7.95;7.03;;;15.80;99.90;;;;;;5037692;28;20044;-73
2023/09/11 04:31:49;;;;;;;8.38;6.47;;;15.80;99.90;;;;;;5048911;23;20079;-80
2023/09/11 04:34:15;;;;;;;9.05;7.25;;;15.80;99.90;;;;;;5064545;28;20412;-79
2023/09/11 04:36:41;;;;;;;9.98;7.43;;;15.80;99.90;;;;;;5072547;28;20107;-79
2023/09/11 04:39:07;;;;;;;9.13;6.97;;;15.80;99.90;;;;;;5040168;28;20060;-80
2023/09/11 04:41:32;;;;;;;10.30;7.50;;;15.80;99.90;;;;;;5021896;28;20055;-80
2023/09/11 04:43:58;;;;;;;9.00;6.88;;;15.70;99.90;;;;;;5006088;28;20036;-79
2023/09/11 04:46:23;;;;;;;8.88;7.35;;;15.70;99.90;;;;;;5055577;28;20029;-79
2023/09/11 04:48:49;;;;;;;9.02;7.60;;;15.70;99.90;;;;;;5038028;28;20064;-80
2023/09/11 04:51:15;;;;;;;9.32;7.88;;;15.70;99.90;;;;;;5039742;28;20079;-79
2023/09/11 04:53:40;;;;;;;10.43;7.88;;;15.70;99.90;;;;;;5039486;28;20084;-79
2023/09/11 04:56:07;;;;;;;10.27;7.88;;;15.80;99.90;;;;;;5040985;28;20036;-79
2023/09/11 04:58:32;;;;;;;10.23;8.18;;;15.80;99.90;;;;;;5058179;28;20033;-79
2023/09/11 05:00:58;;;;;;;10.75;7.60;;;15.80;99.90;;;;;;5058261;28;20029;-79
2023/09/11 05:03:24;;;;;;;8.88;7.70;;;15.80;99.90;;;;;;5041398;28;20120;-79
2023/09/11 05:05:50;;;;;;;9.68;7.28;;;15.80;99.90;;;;;;5040937;28;20511;-79
2023/09/11 05:08:16;;;;;;;9.55;7.55;;;15.80;99.90;;;;;;5058152;28;20025;-80
2023/09/11 05:10:42;;;;;;;9.25;6.95;;;15.80;99.90;;;;;;5057943;28;20033;-79
2023/09/11 05:13:08;;;;;;;8.38;7.45;;;15.70;99.90;;;;;;5038863;28;20056;-79
2023/09/11 05:15:34;;;;;;;9.80;7.18;;;15.70;99.90;;;;;;5037944;28;20059;-79
2023/09/11 05:17:59;;;;;;;9.07;7.15;;;15.70;99.90;;;;;;5056006;28;20025;-79
2023/09/11 05:20:25;;;;;;;10.18;7.57;;;15.70;99.90;;;;;;5055942;28;20075;-79
2023/09/11 05:22:51;;;;;;;10.05;7.53;;;15.70;99.90;;;;;;5056502;28;20393;-79
2023/09/11 05:25:16;;;;;;;10.23;8.32;;;15.80;99.90;;;;;;5037966;28;20058;-79
2023/09/11 05:27:44;;;;;;;11.63;8.18;;;15.80;99.90;;;;;;5038810;28;20024;-79
2023/09/11 05:30:11;;;;;;;11.25;8.85;;;15.80;99.90;;;;;;5056439;28;20029;-79
2023/09/11 05:32:36;;;;;;;8.68;7.78;;;15.90;99.90;;;;;;5055632;28;20029;-80
2023/09/11 05:35:04;;;;;;;10.43;8.35;;;15.90;99.90;;;;;;5038554;28;20029;-79
2023/09/11 05:37:30;;;;;;;9.75;8.02;;;15.90;99.90;;;;;;5056090;28;20069;-79
2023/09/11 05:39:56;;;;;;;10.30;8.00;;;15.90;99.90;;;;;;5056071;28;20021;-79
2023/09/11 05:42:21;;;;;;;9.70;8.50;;;16.00;99.90;;;;;;5021703;28;20064;-79
2023/09/11 05:44:48;;;;;;;9.45;7.82;;;16.00;99.90;;;;;;5038089;28;20029;-79
2023/09/11 05:47:14;;;;;;;9.45;7.45;;;16.00;99.90;;;;;;5086684;23;20081;-80
2023/09/11 05:49:40;;;;;;;12.63;7.88;;;16.00;99.90;;;;;;5094902;28;20024;-79
2023/09/11 05:52:06;;;;;;;9.60;8.00;;;16.00;99.90;;;;;;5095551;28;20119;-79
2023/09/11 05:54:33;;;;;;;8.88;7.72;;;16.00;99.90;;;;;;5077610;28;20028;-79
2023/09/11 05:57:01;;;;;;;13.00;8.75;;;16.00;99.90;;;;;;5095235;28;20020;-79
2023/09/11 05:59:27;;;;;;;10.85;8.40;;;16.10;99.90;;;;;;5077679;28;20027;-79
2023/09/11 06:01:52;;;;;;;10.23;9.00;;;16.10;99.90;;;;;;5094643;28;20399;-79
2023/09/11 06:04:18;;;;;;;10.00;8.20;;;16.10;99.90;;;;;;5094596;28;20020;-79
2023/09/11 06:06:44;;;;;;;11.20;9.18;;;16.20;99.90;;;;;;5076325;28;20144;-79
2023/09/11 06:09:09;;;;;;;10.43;8.77;;;16.20;99.90;;;;;;5077023;28;20024;-79
2023/09/11 06:11:36;;;;;;;9.95;8.90;;;16.20;99.90;;;;;;5077130;28;20429;-79
2023/09/11 06:14:01;;;;;;;11.63;9.70;;;16.30;99.90;;;;;;5095237;28;20452;-79
2023/09/11 06:16:27;;;;;;;10.93;8.70;;;16.30;99.90;;;;;;5094574;28;20020;-79
2023/09/11 06:18:53;;;;;;;11.52;8.70;;;16.30;99.90;;;;;;5094915;28;20457;-79
2023/09/11 06:21:19;;;;;;;11.80;9.80;;;16.40;99.90;;;;;;5095132;28;20020;-79
2023/09/11 06:23:44;;;;;;;11.68;9.52;;;16.40;99.90;;;;;;5094830;28;20028;-79
2023/09/11 06:26:10;;;;;;;10.80;9.68;;;16.40;99.90;;;;;;5094948;28;20536;-80
2023/09/11 06:28:36;;;;;;;12.15;10.05;;;16.50;99.90;;;;;;5076796;28;20039;-79
2023/09/11 06:31:02;;;;;;;11.55;9.30;;;16.50;99.90;;;;;;5076948;28;20067;-79
2023/09/11 06:33:27;;;;;;;14.25;9.93;;;16.50;99.90;;;;;;5094285;28;20031;-79
2023/09/11 06:35:54;;;;;;;11.27;9.93;;;16.60;99.90;;;;;;5077414;28;20051;-80
2023/09/11 06:38:21;;;;;;;12.93;10.00;;;16.70;99.90;;;;;;5095072;28;20024;-79
2023/09/11 06:40:47;;;;;;;13.35;11.13;;;16.70;99.90;;;;;;5094661;28;20364;-79
2023/09/11 06:43:12;;;;;;;11.35;10.07;;;16.80;99.90;;;;;;5076888;28;20036;-80
2023/09/11 06:45:38;;;;;;;13.23;10.25;;;16.80;99.90;;;;;;5092314;28;20082;-79
2023/09/11 06:48:05;;;;;;;14.20;11.75;;;16.90;99.90;;;;;;5039770;28;20442;-79
2023/09/11 06:50:31;;;;;;;13.23;10.65;;;16.90;99.90;;;;;;5074665;28;20041;-80
2023/09/11 06:52:56;;;;;;;14.50;11.80;;;17.00;99.90;;;;;;5056822;28;20029;-80
2023/09/11 06:55:22;;;;;;;12.57;11.18;;;17.10;99.90;;;;;;5056692;28;20024;-79
2023/09/11 06:57:59;;;;;;;18.27;13.48;;;17.10;99.90;;;;;;5075171;28;20453;-80
2023/09/11 07:00:25;;;;;;;15.80;12.73;;;17.20;99.90;;;;;;5074377;28;20073;-80
2023/09/11 07:02:51;;;;;;;15.18;12.32;;;17.30;99.90;;;;;;5073884;28;20036;-80
2023/09/11 07:05:18;;;;;;;14.25;11.32;;;17.30;99.90;;;;;;5074496;28;20052;-79
2023/09/11 07:07:44;;;;;;;22.63;16.30;;;17.40;99.90;;;;;;5056165;28;20054;-79
2023/09/11 07:10:20;;;;;;;21.55;14.93;;;17.40;99.90;;;;;;5056497;28;20127;-80
2023/09/11 07:12:46;;;;;;;16.98;13.32;;;17.50;99.90;;;;;;5073980;28;20025;-79
2023/09/11 07:15:12;;;;;;;19.92;14.95;;;17.60;99.90;;;;;;5086295;28;20028;-79
2023/09/11 07:17:38;;;;;;;18.15;14.32;;;17.60;99.90;;;;;;5096552;28;20024;-80
2023/09/11 07:20:05;;;;;;;18.85;14.85;;;17.70;99.90;;;;;;5098083;28;20031;-79
2023/09/11 07:22:31;;;;;;;16.67;12.88;;;17.80;99.90;;;;;;5097734;28;20020;-79
2023/09/11 07:24:57;;;;;;;18.48;13.93;;;17.90;99.90;;;;;;5098256;28;20386;-80
2023/09/11 07:27:26;;;;;;;16.80;14.10;;;18.00;99.90;;;;;;5079537;28;20024;-80
2023/09/11 07:29:52;;;;;;;17.73;15.10;;;18.10;99.90;;;;;;5098173;28;20027;-80
2023/09/11 07:32:18;;;;;;;18.42;14.65;;;18.20;99.90;;;;;;5097565;28;20028;-79
2023/09/11 07:34:43;;;;;;;17.60;14.20;;;18.20;99.90;;;;;;5097905;28;20066;-80
2023/09/11 07:37:09;;;;;;;16.67;13.68;;;18.30;99.90;;;;;;5079886;28;20016;-79
2023/09/11 07:39:35;;;;;;;15.55;13.18;;;18.40;99.90;;;;;;5097900;28;20390;-80
2023/09/11 07:42:00;;;;;;;16.77;14.20;;;18.50;99.90;;;;;;5079878;28;20028;-80
2023/09/11 07:44:26;;;;;;;18.60;15.55;;;18.60;99.90;;;;;;5097662;28;20028;-80
2023/09/11 07:46:52;;;;;;;20.08;14.60;;;18.70;99.90;;;;;;5084422;28;20181;-80
2023/09/11 07:49:18;;;;;;;20.42;15.98;;;18.80;99.90;;;;;;5077083;28;20047;-80
2023/09/11 07:51:44;;;;;;;20.55;16.42;;;18.90;99.90;;;;;;5063488;28;20424;-79
2023/09/11 07:54:10;;;;;;;15.20;13.00;;;19.00;99.90;;;;;;5079773;28;20109;-80
2023/09/11 07:56:37;;;;;;;16.75;13.85;;;19.10;99.90;;;;;;5079480;28;20075;-80
2023/09/11 07:59:03;;;;;;;17.30;14.07;;;19.20;99.90;;;;;;5097596;28;20367;-80
2023/09/11 08:01:30;;;;;;;18.33;14.15;;;19.30;99.90;;;;;;5062038;28;20024;-80
2023/09/11 08:03:56;;;;;;;16.92;14.05;;;19.40;99.90;;;;;;5062609;28;20050;-80
2023/09/11 08:06:23;;;;;;;19.35;15.13;;;19.50;99.90;;;;;;5078970;28;20029;-80
2023/09/11 08:08:48;;;;;;;16.95;15.07;;;19.60;99.90;;;;;;5097267;28;20031;-81
2023/09/11 08:11:19;;;;;;;20.95;15.88;;;19.80;99.90;;;;;;5097177;28;20020;-80
2023/09/11 08:13:46;;;;;;;15.65;13.95;;;20.00;99.90;;;;;;5078947;28;20032;-80
2023/09/11 08:16:16;;;;;;;17.05;15.25;;;20.10;99.90;;;;;;5089559;28;20037;-80
2023/09/11 08:18:44;;;;;;;17.48;15.05;;;20.20;99.90;;;;;;5076646;28;20286;-80
2023/09/11 08:21:09;;;;;;;13.70;12.30;;;20.30;99.90;;;;;;5058612;28;20048;-80
2023/09/11 08:23:35;;;;;;;17.25;14.50;;;20.50;99.90;;;;;;5076376;28;20029;-80
2023/09/11 08:26:04;;;;;;;16.40;14.52;;;20.60;99.90;;;;;;5025750;28;20116;-80
2023/09/11 08:28:30;;;;;;;20.13;16.95;;;20.70;99.90;;;;;;5075459;28;20027;-80
2023/09/11 08:30:56;;;;;;;18.42;15.52;;;20.80;99.90;;;;;;5076260;28;20103;-80
2023/09/11 08:33:22;;;;;;;18.00;14.68;;;20.90;99.90;;;;;;5076224;28;20104;-80
2023/09/11 08:35:48;;;;;;;16.23;14.52;;;21.10;99.90;;;;;;5059116;28;20053;-80
2023/09/11 08:38:18;;;;;;;14.88;13.05;;;21.20;99.90;;;;;;5059019;28;20372;-80
2023/09/11 08:40:44;;;;;;;17.30;14.90;;;21.30;99.90;;;;;;5076451;28;20035;-80
2023/09/11 08:43:10;;;;;;;22.00;14.52;;;21.40;99.90;;;;;;5076374;28;20032;-80
2023/09/11 08:45:40;;;;;;;16.35;12.88;;;21.50;99.90;;;;;;5076258;28;20432;-80
2023/09/11 08:48:11;;;;;;;15.95;12.75;;;21.70;99.90;;;;;;5075483;28;20040;-80
2023/09/11 08:50:54;;;;;;;15.93;13.68;;;21.80;99.90;;;;;;5075805;28;20066;-80
2023/09/11 08:53:22;;;;;;;21.52;18.05;;;21.90;99.90;;;;;;5076485;28;20020;-80
2023/09/11 08:55:49;;;;;;;19.60;16.48;;;22.10;99.90;;;;;;5058424;28;20108;-80
2023/09/11 08:58:20;;;;;;;20.42;16.35;;;22.20;99.90;;;;;;5058170;28;20025;-80
2023/09/11 09:00:46;;;;;;;;;;;22.20;99.90;;;;;;5077870;28;20095;-80
2023/09/11 09:03:12;;;;;;;15.88;13.43;;;22.40;99.90;;;;;;5096471;28;19939;-80
2023/09/11 09:05:39;;;;;;;16.52;13.45;;;22.60;99.90;;;;;;5077809;28;20031;-80
2023/09/11 09:08:07;;;;;;;16.38;13.93;;;22.70;99.90;;;;;;5095829;28;20028;-80
2023/09/11 09:10:33;;;;;;;14.52;12.68;;;22.80;99.90;;;;;;5095476;28;20024;-80
2023/09/11 09:12:59;;;;;;;17.02;13.93;;;22.90;99.90;;;;;;5095720;28;20410;-80
2023/09/11 09:15:27;;;;;;;15.88;13.38;;;23.10;99.90;;;;;;5063346;28;20036;-81
2023/09/11 09:17:53;;;;;;;13.10;11.40;;;23.20;99.90;;;;;;5057030;28;20027;-80
2023/09/11 09:20:20;;;;;;;16.55;12.23;;;23.40;99.90;;;;;;5040345;28;20025;-80
2023/09/11 09:22:52;;;;;;;14.13;11.25;;;23.50;99.90;;;;;;5039936;28;20028;-80
2023/09/11 09:25:18;;;;;;;13.07;10.75;;;23.60;99.90;;;;;;5056825;28;20487;-80
2023/09/11 09:27:43;;;;;;;12.43;11.13;;;23.70;99.90;;;;;;5056699;28;20117;-80
2023/09/11 09:30:20;;;;;;;13.43;11.20;;;23.80;99.90;;;;;;5057199;28;20464;-81
2023/09/11 09:32:47;;;;;;;13.02;11.63;;;23.90;99.90;;;;;;5074500;28;20020;-80
2023/09/11 09:35:13;;;;;;;12.95;11.60;;;24.00;99.90;;;;;;5074322;28;20487;-80
2023/09/11 09:37:39;;;;;;;14.02;12.27;;;24.20;99.90;;;;;;5074304;28;20035;-80
2023/09/11 09:40:06;;;;;;;15.73;12.48;;;24.30;99.90;;;;;;5056263;28;20028;-80
2023/09/11 09:42:40;;;;;;;13.77;12.27;;;24.40;99.90;;;;;;5056261;28;20081;-80
2023/09/11 09:45:06;;;;;;;13.40;12.02;;;24.50;99.90;;;;;;5085334;28;20074;-80
2023/09/11 09:47:32;;;;;;;13.63;12.10;;;24.70;99.90;;;;;;5094077;28;20487;-80
2023/09/11 09:50:00;;;;;;;14.52;12.65;;;24.80;99.90;;;;;;5076253;28;20116;-80
2023/09/11 09:52:28;;;;;;;16.02;12.52;;;24.90;99.90;;;;;;5094249;28;20024;-81
2023/09/11 09:54:56;;;;;;;13.35;11.95;;;25.10;99.90;;;;;;5076077;28;20020;-80
2023/09/11 09:57:24;;;;;;;13.57;11.60;;;25.20;99.90;;;;;;5094344;28;20031;-80
2023/09/11 09:59:52;;;;;;;15.05;12.63;;;25.20;99.90;;;;;;5094363;28;20387;-81
2023/09/11 10:02:32;;;;;;;12.98;11.50;;;25.30;99.90;;;;;;5094085;28;20099;-80
2023/09/11 10:05:03;;;;;;;12.80;11.45;;;25.40;99.90;;;;;;5076154;28;20156;-80
2023/09/11 10:07:45;;;;;;;16.65;11.00;;;25.50;99.90;;;;;;5075962;28;20087;-80
2023/09/11 10:10:26;;;;;;;14.05;12.13;;;25.60;99.90;;;;;;5076860;28;20085;-81
2023/09/11 10:12:53;;;;;;;13.48;11.55;;;25.70;99.90;;;;;;5094163;28;20020;-80
2023/09/11 10:15:21;;;;;;;14.82;11.20;;;25.80;99.90;;;;;;5093891;28;20028;-80
2023/09/11 10:17:48;;;;;;;12.73;11.00;;;25.90;99.90;;;;;;5093946;28;20024;-81
2023/09/11 10:20:13;;;;;;;13.18;11.13;;;26.00;99.90;;;;;;5093839;28;20383;-81
2023/09/11 10:22:39;;;;;;;12.18;10.43;;;26.10;99.90;;;;;;5093842;28;20036;-80
2023/09/11 10:25:05;;;;;;;12.02;10.02;;;26.20;99.90;;;;;;5093762;28;20032;-80
2023/09/11 10:27:32;;;;;;;10.82;9.73;;;26.30;99.90;;;;;;5093792;28;20093;-80
2023/09/11 10:30:03;;;;;;;11.48;10.27;;;26.40;99.90;;;;;;5075847;28;20464;-80
2023/09/11 10:32:45;;;;;;;10.90;9.52;;;26.50;99.90;;;;;;5061976;28;20037;-80
2023/09/11 10:35:11;;;;;;;10.80;9.05;;;26.60;99.90;;;;;;5085166;28;20025;-80
2023/09/11 10:37:40;;;;;;;10.48;9.38;;;26.70;99.90;;;;;;5093606;28;20024;-80
2023/09/11 10:40:08;;;;;;;9.82;8.68;;;26.80;99.90;;;;;;5093789;28;20107;-80
2023/09/11 10:42:34;;;;;;;13.00;9.98;;;26.90;99.90;;;;;;5074186;28;20107;-81
2023/09/11 10:44:59;;;;;;;10.68;9.63;;;27.00;99.90;;;;;;5093887;28;20448;-82
2023/09/11 10:47:27;;;;;;;11.50;9.13;;;27.20;99.90;;;;;;5075991;28;20081;-82
2023/09/11 10:49:56;;;;;;;12.65;9.65;;;27.30;99.90;;;;;;5059086;28;20036;-81
2023/09/11 10:52:24;;;;;;;12.80;9.43;;;27.30;99.90;;;;;;5096935;28;20165;-82
2023/09/11 10:54:50;;;;;;;11.63;9.48;;;27.50;99.90;;;;;;5080443;28;20016;-81
2023/09/11 10:57:16;;;;;;;12.77;10.15;;;27.50;99.90;;;;;;5079488;28;20148;-81
2023/09/11 10:59:42;;;;;;;10.57;9.52;;;27.60;99.90;;;;;;5097991;28;20049;-81
2023/09/11 11:02:08;;;;;;;11.07;9.48;;;27.70;99.90;;;;;;5084393;28;20499;-81
2023/09/11 11:04:34;;;;;;;11.63;9.15;;;27.70;99.90;;;;;;5077029;28;20434;-81
2023/09/11 11:07:02;;;;;;;10.93;9.82;;;27.80;99.90;;;;;;5077268;28;20020;-81
2023/09/11 11:09:33;;;;;;;11.23;9.98;;;27.90;99.90;;;;;;5077102;28;20016;-81
2023/09/11 11:12:04;;;;;;;11.20;10.10;;;28.00;99.90;;;;;;5076967;28;20020;-81
2023/09/11 11:14:30;;;;;;;12.38;10.02;;;28.00;99.90;;;;;;5077121;28;20052;-81
2023/09/11 11:17:10;;;;;;;11.38;10.20;;;28.10;99.90;;;;;;5058968;28;20055;-81
2023/09/11 11:19:40;;;;;;;11.80;9.77;;;28.10;99.90;;;;;;5076921;28;20031;-81
2023/09/11 11:22:07;;;;;;;11.27;10.07;;;28.20;99.90;;;;;;5058901;28;20028;-81
2023/09/11 11:24:57;;;;;;;9.63;8.63;;;28.30;99.90;;;;;;5076847;28;20298;-81
2023/09/11 11:27:23;;;;;;;9.07;8.18;;;28.40;99.80;;;;;;5076812;28;20022;-81
2023/09/11 11:29:49;;;;;;;8.77;7.88;;;28.50;99.20;;;;;;5076870;28;20039;-81
2023/09/11 11:32:20;;;;;;;10.68;8.02;;;28.60;98.90;;;;;;5090534;28;20057;-82
2023/09/11 11:34:47;;;;;;;8.43;7.63;;;28.60;99.90;;;;;;5097975;28;20024;-82
2023/09/11 11:37:16;;;;;;;10.05;8.15;;;28.60;98.80;;;;;;5097544;28;20034;-82
2023/09/11 11:39:43;;;;;;;8.93;7.90;;;28.70;98.00;;;;;;5078819;28;20024;-82
2023/09/11 11:42:09;;;;;;;9.45;7.85;;;28.80;97.70;;;;;;5062394;28;20020;-82
2023/09/11 11:44:36;;;;;;;8.45;7.65;;;28.80;98.20;;;;;;5097459;28;20105;-82
2023/09/11 11:47:01;;;;;;;10.55;7.78;;;29.00;98.20;;;;;;5087705;22;20044;-75
2023/09/11 11:49:28;;;;;;;8.15;6.93;;;29.00;97.10;;;;;;5056121;28;20391;-75
2023/09/11 11:51:53;;;;;;;9.02;7.13;;;29.10;94.80;;;;;;5056288;28;20079;-76
2023/09/11 11:54:24;;;;;;;9.35;7.32;;;29.10;95.50;;;;;;5055751;28;20033;-76
2023/09/11 11:57:03;;;;;;;7.63;6.78;;;29.20;96.40;;;;;;5056310;28;20021;-76
2023/09/11 11:59:41;;;;;;;7.65;6.72;;;29.40;96.90;;;;;;5056474;28;20072;-76
2023/09/11 12:02:24;;;;;;;7.07;6.38;;;29.40;95.10;;;;;;5055943;28;20064;-75
2023/09/11 12:04:53;;;;;;;8.30;6.88;;;29.50;94.10;;;;;;5056330;28;20017;-76
2023/09/11 12:07:21;;;;;;;11.02;7.00;;;29.60;95.30;;;;;;5055845;28;20028;-76
2023/09/11 12:09:48;;;;;;;8.20;6.53;;;29.70;95.30;;;;;;5055981;28;20029;-76
2023/09/11 12:12:14;;;;;;;7.82;7.03;;;29.70;93.60;;;;;;5037826;28;20025;-76
2023/09/11 12:14:40;;;;;;;8.07;7.03;;;29.80;92.50;;;;;;5056023;28;20495;-76
2023/09/11 12:17:09;;;;;;;7.45;6.40;;;29.70;92.70;;;;;;5038070;28;20029;-76
2023/09/11 12:19:35;;;;;;;7.70;6.90;;;29.70;93.00;;;;;;5055812;28;20025;-76
2023/09/11 12:22:01;;;;;;;7.53;6.70;;;29.60;91.50;;;;;;5055830;28;20032;-76
2023/09/11 12:24:26;;;;;;;8.40;6.57;;;29.60;92.30;;;;;;5038567;28;20028;-76
2023/09/11 12:26:52;;;;;;;9.82;6.85;;;29.70;91.80;;;;;;5056061;28;20159;-75
2023/09/11 12:29:18;;;;;;;10.93;7.32;;;29.70;92.20;;;;;;5055917;28;20028;-75
2023/09/11 12:31:44;;;;;;;8.50;7.05;;;29.70;92.00;;;;;;5055851;28;20028;-75
2023/09/11 12:34:10;;;;;;;7.43;6.47;;;29.80;92.40;;;;;;5055263;28;20040;-76
2023/09/11 12:36:36;;;;;;;7.53;6.80;;;29.80;91.30;;;;;;5037481;28;20031;-76
2023/09/11 12:39:06;;;;;;;10.25;7.13;;;29.80;91.20;;;;;;5055380;28;20369;-76